Información del aeropuerto LEGR

Información de pista
Pista 09 Longitud 9514 ft Anchura 148 ft
Elevación 1842 ft Umbral 0 ft Rumbo 90
Pista 27 Longitud 9514 ft Anchura 148 ft
Elevación 1860 ft Umbral 0 ft Rumbo 270
Frecuencias del aeropuerto
Tipo GND Nombre GND Frecuencia 121.7 MHZ
Tipo TWR Nombre TWR Frecuencia 118.85 MHZ
Radioayudas del aeropuerto
Tipo VOR-DME Nombre Granada Frecuencia 113400 KHZ
Información meteorológica del aeropuerto y NOTAM
ADDS - METARS form results

(2235 UTC 19 May 2022)
Data provider http://aviationweather.gov/metar/data/
 
METAR text: LEGR 192230Z AUTO VRB01KT CAVOK 24/10 Q1020
Conditions at: LEGR (GRANADA AIRPORT , ES) observed 2230 UTC 19 May 2022
Temperature: 24.0°C (75°F)
Dewpoint: 10.0°C (50°F) [RH = 41%]
Pressure (altimeter): 30.12 inches Hg (1020.0 mb)
Winds: variable direction winds at 1 MPH (1 knots; 0.5 m/s)
Visibility: 6 or more miles (10+ km)
Ceiling: ceiling and visibility are OK
Clouds: unknown
Weather: no significant weather observed at this time

METAR text: LEGR 192200Z AUTO 10003KT 060V150 CAVOK 25/09 Q1020
Conditions at: LEGR (GRANADA AIRPORT , ES) observed 2200 UTC 19 May 2022
Temperature: 25.0°C (77°F)
Dewpoint: 9.0°C (48°F) [RH = 36%]
Pressure (altimeter): 30.12 inches Hg (1020.0 mb)
Winds: from the E (100 degrees) at 3 MPH (3 knots; 1.5 m/s)
Visibility: 6 or more miles (10+ km)
Ceiling: ceiling and visibility are OK
Clouds: unknown
Weather: no significant weather observed at this time

Forecast for: LEGR (GRANADA AIRPORT , ES)
Text: TAF LEGR 191700Z 1918/2018 17012KT CAVOK TX39/2015Z TN16/2005Z
Forecast period: 1800 to 2000 UTC 19 May 2022
Forecast type: FROM: standard forecast or significant change
Winds: from the S (170 degrees) at 14 MPH (12 knots; 6.2 m/s)
Visibility: 6 or more miles (10+ km)
Ceiling: unknown
Clouds: missing
Weather: no significant weather forecast for this period
Text: BECMG 1920/1922 VRB02KT
Forecast period: 2000 UTC 19 May 2022 to 0900 UTC 20 May 2022
Forecast type: BECOMING: Conditions expected to become as follows by 2200 UTC 19 May 2022
Winds: variable direction winds at 2 MPH (2 knots; 1.0 m/s)
Visibility: 6 or more miles (10+ km)
Ceiling: unknown
Clouds: missing
Weather: no significant weather forecast for this period
Text: BECMG 2009/2011 16014KT
Forecast period: 0900 to 1800 UTC 20 May 2022
Forecast type: BECOMING: Conditions expected to become as follows by 1100 UTC 20 May 2022
Winds: from the SSE (160 degrees) at 16 MPH (14 knots; 7.2 m/s)
Visibility: 6 or more miles (10+ km)
Ceiling: unknown
Clouds: missing
Weather: no significant weather forecast for this period
Text: PROB40
Forecast period: 1000 to 1500 UTC 20 May 2022
Forecast type: TEMPORARY: The following changes expected for less than half the time period
Winds: from the S (170 degrees) at 21 MPH (18 knots; 9.3 m/s)
gusting to 34 MPH (30 knots; 15.4 m/s)
Visibility: missing
Ceiling: unknown
Clouds: missing
Weather: no significant weather forecast for this period